createdAt,value
2022-09-14T00:04:56.515Z,15.9
2022-09-14T00:09:56.508Z,15.9
2022-09-14T00:19:56.488Z,15.7
2022-09-14T00:24:56.522Z,15.5
2022-09-14T00:34:56.493Z,15.6
2022-09-14T00:39:56.559Z,15.6
2022-09-14T00:44:56.661Z,15.9
2022-09-14T00:49:56.511Z,15.8
2022-09-14T00:59:56.500Z,15.7
2022-09-14T01:09:56.534Z,15.6
2022-09-14T01:14:56.525Z,15.7
2022-09-14T01:19:56.538Z,15.7
2022-09-14T01:29:56.534Z,16
2022-09-14T01:39:56.573Z,15.7
2022-09-14T01:49:56.558Z,15.9
2022-09-14T01:54:56.536Z,15.9
2022-09-14T01:59:56.522Z,16
2022-09-14T02:04:56.532Z,15.9
2022-09-14T02:14:56.650Z,15.9
2022-09-14T02:24:56.539Z,15.8
2022-09-14T02:34:56.549Z,15.6
2022-09-14T02:39:56.574Z,15.6
2022-09-14T02:44:56.542Z,15.9
2022-09-14T02:54:56.661Z,15.7
2022-09-14T02:59:56.548Z,15.6
2022-09-14T03:04:56.548Z,15.6
2022-09-14T03:14:56.554Z,15.7
2022-09-14T03:24:56.555Z,15.8
2022-09-14T03:34:56.588Z,15.7
2022-09-14T03:44:56.570Z,15.6
2022-09-14T03:49:56.578Z,15.5
2022-09-14T03:59:56.597Z,15.5
2022-09-14T04:04:56.578Z,15.8
2022-09-14T04:09:56.579Z,15.8
2022-09-14T04:19:56.608Z,15.7
2022-09-14T04:29:56.593Z,15.5
2022-09-14T04:39:56.735Z,15.6
2022-09-14T04:44:56.584Z,15.8
2022-09-14T04:49:56.600Z,15.8
2022-09-14T04:59:56.629Z,15.5
2022-09-14T05:09:56.597Z,15.5
2022-09-14T05:14:56.600Z,15.4
2022-09-14T05:24:56.628Z,15.7
2022-09-14T05:29:56.610Z,15.7
2022-09-14T05:39:56.675Z,15.5
2022-09-14T05:49:56.713Z,15.5
2022-09-14T05:59:56.614Z,15.6
2022-09-14T06:09:56.717Z,15.7
2022-09-14T06:14:56.606Z,15.6
2022-09-14T06:19:58.306Z,15.6
2022-09-14T06:24:56.646Z,15.4
2022-09-14T06:34:56.638Z,15.5
2022-09-14T06:39:56.682Z,15.6
2022-09-14T06:44:56.625Z,15.6
2022-09-14T06:49:56.627Z,15.6
2022-09-14T06:59:56.744Z,15.6
2022-09-14T07:04:56.648Z,15.6
2022-09-14T07:14:56.632Z,15.5
2022-09-14T07:19:56.683Z,15.6
2022-09-14T07:29:56.635Z,15.7
2022-09-14T07:34:56.653Z,15.6
2022-09-14T07:44:56.680Z,15.6
2022-09-14T07:54:56.656Z,15.5
2022-09-14T07:59:56.657Z,15.5
2022-09-14T08:09:56.756Z,15.6
2022-09-14T08:14:56.656Z,15.5
2022-09-14T08:24:56.647Z,15.8
2022-09-14T08:29:56.690Z,16.4
2022-09-14T08:39:56.751Z,16.3
2022-09-14T08:49:56.697Z,16.1
2022-09-14T08:54:56.682Z,16
2022-09-14T08:59:56.687Z,15.9
2022-09-14T09:04:56.696Z,15.9
2022-09-14T09:09:56.738Z,15.9
2022-09-14T09:19:56.687Z,15.9
2022-09-14T09:29:56.721Z,16.1
2022-09-14T09:39:56.744Z,16.1
2022-09-14T09:49:56.838Z,16
2022-09-14T09:54:56.702Z,16.3
2022-09-14T10:04:56.702Z,16.4
2022-09-14T10:09:56.816Z,16.3
2022-09-14T10:19:56.723Z,16.4
2022-09-14T10:29:56.864Z,16.3
2022-09-14T10:39:56.819Z,16.2
2022-09-14T10:44:56.730Z,16.3
2022-09-14T10:54:56.824Z,16
2022-09-14T11:04:56.710Z,16.1
2022-09-14T11:09:56.735Z,15.9
2022-09-14T11:19:56.826Z,16
2022-09-14T11:24:56.744Z,16.1
2022-09-14T11:29:56.735Z,16.1
2022-09-14T11:39:56.832Z,15.9
2022-09-14T11:49:56.729Z,16
2022-09-14T11:54:56.758Z,15.9
2022-09-14T12:04:56.870Z,16.1
2022-09-14T12:09:56.852Z,16
2022-09-14T12:14:56.748Z,16
2022-09-14T12:24:56.866Z,16
2022-09-14T12:34:56.755Z,15.9
2022-09-14T12:44:56.846Z,16
2022-09-14T12:49:56.752Z,16
2022-09-14T12:54:56.767Z,16.1
2022-09-14T13:04:56.783Z,16
2022-09-14T13:14:56.750Z,16.9
2022-09-14T13:19:56.763Z,16.9
2022-09-14T13:29:56.820Z,16.5
2022-09-14T13:34:56.763Z,16.4
2022-09-14T13:44:56.774Z,16.3
2022-09-14T13:54:56.812Z,16.2
2022-09-14T14:04:56.793Z,16.3
2022-09-14T14:14:56.832Z,16.2
2022-09-14T14:25:16.084Z,16.1
2022-09-14T14:34:56.839Z,16.1
2022-09-14T14:44:56.800Z,16.1
2022-09-14T14:54:56.893Z,16.2
2022-09-14T14:59:56.794Z,16.1
2022-09-14T15:09:56.956Z,16.1
2022-09-14T15:19:56.829Z,16.1
2022-09-14T15:24:56.784Z,16.2
2022-09-14T15:29:56.807Z,16.1
2022-09-14T15:39:56.939Z,16.1
2022-09-14T15:49:56.802Z,16.1
2022-09-14T15:59:57.082Z,16.2
2022-09-14T16:04:56.814Z,16.2
2022-09-14T16:14:56.814Z,16
2022-09-14T16:24:56.868Z,16.1
2022-09-14T16:34:56.830Z,16.1
2022-09-14T16:44:56.842Z,16.1
2022-09-14T16:49:56.820Z,16.1
2022-09-14T16:54:56.835Z,16.1
2022-09-14T16:59:56.827Z,16.1
2022-09-14T17:04:56.865Z,16
2022-09-14T17:14:56.831Z,16.1
2022-09-14T17:24:56.851Z,16.3
2022-09-14T17:34:56.833Z,16
2022-09-14T17:44:56.841Z,16.1
2022-09-14T17:49:56.827Z,16
2022-09-14T17:59:56.833Z,16
2022-09-14T18:04:56.943Z,16
2022-09-14T18:14:56.837Z,16
2022-09-14T18:24:56.867Z,16
2022-09-14T18:29:56.851Z,16.1
2022-09-14T18:39:56.949Z,16
2022-09-14T18:49:56.852Z,16
2022-09-14T18:54:56.838Z,16
2022-09-14T19:04:56.826Z,16
2022-09-14T19:09:56.862Z,15.9
2022-09-14T19:19:56.830Z,16
2022-09-14T19:29:56.851Z,15.8
2022-09-14T19:34:56.844Z,15.9
2022-09-14T19:44:56.855Z,15.8
2022-09-14T19:54:56.942Z,15.8
2022-09-14T19:59:56.856Z,15.9
2022-09-14T20:04:56.859Z,15.9
2022-09-14T20:14:56.886Z,15.9
2022-09-14T20:24:56.845Z,15.8
2022-09-14T20:29:56.875Z,15.9
2022-09-14T20:39:56.964Z,15.9
2022-09-14T20:49:56.867Z,15.9
2022-09-14T20:59:56.904Z,15.7
2022-09-14T21:09:56.893Z,15.7
2022-09-14T21:19:56.910Z,15.7
2022-09-14T21:29:56.866Z,15.8
2022-09-14T21:34:56.882Z,15.8
2022-09-14T21:44:56.903Z,15.7
2022-09-14T21:54:56.877Z,15.7
2022-09-14T22:04:56.898Z,15.7
2022-09-14T22:09:56.896Z,15.7
2022-09-14T22:19:56.904Z,15.6
2022-09-14T22:29:56.909Z,15.6
2022-09-14T22:34:56.907Z,15.6
2022-09-14T22:44:56.916Z,15.6
2022-09-14T22:54:56.941Z,15.6
2022-09-14T23:04:56.910Z,15.6
2022-09-14T23:14:57.062Z,15.5
2022-09-14T23:24:56.923Z,15.6
2022-09-14T23:34:56.982Z,15.5
2022-09-14T23:39:57.210Z,15.5
2022-09-14T23:44:57.046Z,15.5
2022-09-14T23:54:56.957Z,15.4
